King River, Nevada
Current Conditions -  °F | °C
As of 12:56 AM on Sunday 26 Oct 2014 (Local Time) from KWMC Reporting Station
Broken Clouds Broken Clouds  
Wind Chill: 43°   Ceiling: 9500
Heat Index: 47°   Visibility: 10mi
Dew Point: 27°   Wind: 8mph
Humidity: 46%   Direction: 180°S
Pressure: 30.05"   Gusts: NA
Location:  41.7393°N, 118.104°W
Report Text: KWMC 260756Z AUTO 18007KT 10SM SCT070 BKN095 08/M03 A3005 RMK AO2 SLP146 T00831028 402330033
Loading
Personal Weather Stations






























Interactive Weather Map
Tropical Storm Tracking
New forecast layout! Learn more

10-Day Weather Forecast

Advertisements
Track Severe Weather on mobile